Time;durP1;ratioP1;P1;durP2;ratioP2;P2;SDS_P1;SDS_P2;PMS_P1;PMS_P2;Temp;Humidity;BMP_temperature;BMP_pressure;BME280_temperature;BME280_humidity;BME280_pressure;Samples;Min_cycle;Max_cycle;Signal;HPM_P1;HPM_P2
2021/12/16 07:25:49;;;;;;;19.85;12.15;;;;;;;;;;5094684;27;20390;-69
2021/12/16 07:28:16;;;;;;;19.13;11.45;;;;;;;;;;5077899;28;20430;-68
2021/12/16 07:30:44;;;;;;;21.02;12.55;;;;;;;;;;5077677;28;20032;-68
2021/12/16 07:33:12;;;;;;;22.50;13.02;;;;;;;;;;5082280;28;20410;-69
2021/12/16 07:35:39;;;;;;;20.13;11.45;;;;;;;;;;5073824;28;20560;-68
2021/12/16 07:38:06;;;;;;;24.70;12.80;;;;;;;;;;5083501;28;20024;-69
2021/12/16 07:40:33;;;;;;;22.67;13.40;;;;;;;;;;5080002;28;20391;-70
2021/12/16 07:43:18;;;;;;;23.58;13.73;;;;;;;;;;5085479;28;20028;-70
2021/12/16 07:45:48;;;;;;;25.90;15.65;;;;;;;;;;5084651;28;20106;-70
2021/12/16 07:48:15;;;;;;;20.67;11.65;;;;;;;;;;5081040;28;20103;-69
2021/12/16 07:50:43;;;;;;;30.05;14.73;;;;;;;;;;5081335;28;20028;-69
2021/12/16 07:53:09;;;;;;;30.20;16.00;;;;;;;;;;5080819;28;20081;-69
2021/12/16 07:55:36;;;;;;;31.02;17.73;;;;;;;;;;5084461;28;20027;-70
2021/12/16 07:58:03;;;;;;;32.08;17.90;;;;;;;;;;5082823;28;20033;-70
2021/12/16 08:00:33;;;;;;;37.63;20.70;;;;;;;;;;5080927;28;20032;-70
2021/12/16 08:03:00;;;;;;;32.33;18.65;;;;;;;;;;5083587;28;20052;-70
2021/12/16 08:05:28;;;;;;;31.98;18.55;;;;;;;;;;5084543;28;20047;-70
2021/12/16 08:07:54;;;;;;;35.80;18.40;;;;;;;;;;5082422;28;20095;-70
2021/12/16 08:10:24;;;;;;;35.97;19.52;;;;;;;;;;5083634;28;20041;-71
2021/12/16 08:12:50;;;;;;;42.00;24.20;;;;;;;;;;5085074;28;20024;-69
2021/12/16 08:15:16;;;;;;;74.35;40.17;;;;;;;;;;5079770;28;20495;-69
2021/12/16 08:17:43;;;;;;;33.13;19.52;;;;;;;;;;5082586;28;20025;-69
2021/12/16 08:20:11;;;;;;;44.00;25.52;;;;;;;;;;5081967;28;20025;-69
2021/12/16 08:22:37;;;;;;;47.92;26.52;;;;;;;;;;5079013;28;20036;-69
2021/12/16 08:25:04;;;;;;;48.30;26.13;;;;;;;;;;5075893;28;20049;-70
2021/12/16 08:27:33;;;;;;;63.40;32.15;;;;;;;;;;5080825;28;20023;-70
2021/12/16 08:29:59;;;;;;;52.90;29.63;;;;;;;;;;5078802;28;20024;-69
2021/12/16 08:32:25;;;;;;;48.30;27.17;;;;;;;;;;5081870;28;20033;-70
2021/12/16 08:34:51;;;;;;;53.05;29.20;;;;;;;;;;5082517;28;20039;-70
2021/12/16 08:37:18;;;;;;;55.92;30.25;;;;;;;;;;5068918;28;20031;-70
2021/12/16 08:39:45;;;;;;;54.70;29.70;;;;;;;;;;5073081;28;20099;-70
2021/12/16 08:42:11;;;;;;;51.83;28.77;;;;;;;;;;5069042;28;20483;-70
2021/12/16 08:44:38;;;;;;;44.70;24.58;;;;;;;;;;5064378;28;20071;-70
2021/12/16 08:47:07;;;;;;;50.90;27.13;;;;;;;;;;5070490;28;20104;-70
2021/12/16 08:49:34;;;;;;;50.30;28.52;;;;;;;;;;5068948;28;20486;-70
2021/12/16 08:52:04;;;;;;;49.83;27.73;;;;;;;;;;5069022;28;20024;-69
2021/12/16 08:54:30;;;;;;;49.72;28.92;;;;;;;;;;5070653;28;20012;-70
2021/12/16 08:56:56;;;;;;;45.90;27.40;;;;;;;;;;5069665;28;20483;-71
2021/12/16 08:59:24;;;;;;;44.92;25.55;;;;;;;;;;5066742;28;20033;-71
2021/12/16 09:01:51;;;;;;;147.70;30.73;;;;;;;;;;5068608;28;20406;-72
2021/12/16 09:04:19;;;;;;;52.22;27.23;;;;;;;;;;5070164;28;20033;-72
2021/12/16 09:06:45;;;;;;;44.75;24.42;;;;;;;;;;5071691;28;20024;-71
2021/12/16 09:09:12;;;;;;;39.80;23.95;;;;;;;;;;5069335;28;20399;-70
2021/12/16 09:11:44;;;;;;;46.90;27.00;;;;;;;;;;5069085;28;20085;-70
2021/12/16 09:14:10;;;;;;;43.22;25.63;;;;;;;;;;5068833;28;20027;-70
2021/12/16 09:16:36;;;;;;;42.88;24.50;;;;;;;;;;5062340;28;20503;-70
2021/12/16 09:19:06;;;;;;;45.75;27.00;;;;;;;;;;5069154;28;20441;-70
2021/12/16 09:21:33;;;;;;;41.38;24.98;;;;;;;;;;5068959;28;20499;-71
2021/12/16 09:24:00;;;;;;;40.05;25.23;;;;;;;;;;5064369;28;20048;-72
2021/12/16 09:26:26;;;;;;;37.65;24.15;;;;;;;;;;5065485;28;20033;-70
2021/12/16 09:28:53;;;;;;;35.75;23.00;;;;;;;;;;5070110;28;20438;-71
2021/12/16 09:31:20;;;;;;;36.85;22.20;;;;;;;;;;5066281;28;20040;-70
2021/12/16 09:33:49;;;;;;;38.35;21.83;;;;;;;;;;5063911;28;20450;-70
2021/12/16 09:36:17;;;;;;;34.42;20.75;;;;;;;;;;5064750;28;20016;-69
2021/12/16 09:38:43;;;;;;;34.70;20.88;;;;;;;;;;5064390;28;20092;-70
2021/12/16 09:41:10;;;;;;;31.30;19.90;;;;;;;;;;5068262;28;20028;-71
2021/12/16 09:43:38;;;;;;;34.75;20.83;;;;;;;;;;5066185;28;20090;-71
2021/12/16 09:46:06;;;;;;;38.88;24.30;;;;;;;;;;5063677;28;20028;-71
2021/12/16 09:48:35;;;;;;;37.05;21.48;;;;;;;;;;5069234;28;20117;-70
2021/12/16 09:51:01;;;;;;;41.92;23.30;;;;;;;;;;5065257;28;20028;-70
2021/12/16 09:53:28;;;;;;;44.38;25.02;;;;;;;;;;5068574;28;20024;-71
2021/12/16 09:56:00;;;;;;;40.28;23.80;;;;;;;;;;5068084;28;20483;-70
2021/12/16 09:58:26;;;;;;;32.65;19.63;;;;;;;;;;5067892;28;20049;-69
2021/12/16 10:00:53;;;;;;;36.15;19.38;;;;;;;;;;5071834;28;20028;-70
2021/12/16 10:03:19;;;;;;;32.20;19.70;;;;;;;;;;5067269;28;20032;-70
2021/12/16 10:05:45;;;;;;;34.50;18.90;;;;;;;;;;5068848;28;20032;-71
2021/12/16 10:08:12;;;;;;;35.75;21.23;;;;;;;;;;5068254;28;20055;-71
2021/12/16 10:10:38;;;;;;;34.65;18.65;;;;;;;;;;5067494;28;20025;-71
2021/12/16 10:13:06;;;;;;;30.10;18.17;;;;;;;;;;5070046;28;20028;-71
2021/12/16 10:18:02;;;;;;;33.50;18.95;;;;;;;;;;5067352;28;20059;-71
2021/12/16 10:20:30;;;;;;;31.80;18.60;;;;;;;;;;5061378;28;20598;-70
2021/12/16 10:23:09;;;;;;;28.17;16.48;;;;;;;;;;5059927;28;20025;-71
2021/12/16 10:25:41;;;;;;;28.77;16.45;;;;;;;;;;5063839;28;20055;-71
2021/12/16 10:28:16;;;;;;;24.70;15.23;;;;;;;;;;5069334;28;20020;-71
2021/12/16 10:30:52;;;;;;;27.45;16.25;;;;;;;;;;5063671;28;20021;-71
2021/12/16 10:33:34;;;;;;;21.95;12.45;;;;;;;;;;5067011;28;20028;-71
2021/12/16 10:36:05;;;;;;;19.65;11.75;;;;;;;;;;5064017;28;20037;-71
2021/12/16 10:38:35;;;;;;;16.48;10.68;;;;;;;;;;5067576;28;20380;-71
2021/12/16 10:41:01;;;;;;;17.63;11.35;;;;;;;;;;5067958;28;20029;-71
2021/12/16 10:43:48;;;;;;;17.42;11.45;;;;;;;;;;5067610;28;20025;-70
2021/12/16 10:46:16;;;;;;;21.70;11.23;;;;;;;;;;5066794;28;20032;-71
2021/12/16 10:48:47;;;;;;;18.20;10.27;;;;;;;;;;5069471;28;20142;-72
2021/12/16 10:51:16;;;;;;;15.05;9.93;;;;;;;;;;5067448;28;20056;-72
2021/12/16 10:53:54;;;;;;;12.27;8.25;;;;;;;;;;5064339;28;20107;-72
2021/12/16 10:56:24;;;;;;;11.77;7.13;;;;;;;;;;5062285;28;20032;-72
2021/12/16 10:58:56;;;;;;;10.80;6.68;;;;;;;;;;5060915;28;20024;-72
2021/12/16 11:01:31;;;;;;;16.88;9.13;;;;;;;;;;5065945;28;20029;-72
2021/12/16 11:03:58;;;;;;;14.30;8.35;;;;;;;;;;5067282;28;20103;-73
2021/12/16 11:06:36;;;;;;;14.68;8.30;;;;;;;;;;5067533;28;20032;-72
2021/12/16 11:09:21;;;;;;;17.65;8.75;;;;;;;;;;5064922;28;20158;-71
2021/12/16 11:11:47;;;;;;;14.30;9.50;;;;;;;;;;5066471;28;20051;-72
2021/12/16 11:14:13;;;;;;;14.48;8.57;;;;;;;;;;5066998;28;20445;-73
2021/12/16 11:16:39;;;;;;;16.98;9.23;;;;;;;;;;5067344;28;20028;-72
2021/12/16 11:19:06;;;;;;;16.77;9.82;;;;;;;;;;5069084;28;20020;-72
2021/12/16 11:21:44;;;;;;;16.42;10.45;;;;;;;;;;5067034;28;20029;-72
2021/12/16 11:24:21;;;;;;;18.77;10.00;;;;;;;;;;5065938;28;20066;-72
2021/12/16 11:26:47;;;;;;;16.52;10.15;;;;;;;;;;5065584;28;20526;-72
2021/12/16 11:29:13;;;;;;;16.83;10.13;;;;;;;;;;5066257;28;20099;-72
2021/12/16 11:31:40;;;;;;;16.45;10.00;;;;;;;;;;5064537;28;20499;-71
2021/12/16 11:34:10;;;;;;;19.52;11.32;;;;;;;;;;5068713;28;20025;-72
2021/12/16 11:36:37;;;;;;;17.48;9.93;;;;;;;;;;5067882;28;20047;-72
2021/12/16 11:39:09;;;;;;;15.48;8.77;;;;;;;;;;5063907;28;20020;-72
2021/12/16 11:41:44;;;;;;;15.48;9.20;;;;;;;;;;5066056;28;20529;-72
2021/12/16 11:44:13;;;;;;;14.95;8.98;;;;;;;;;;5062475;28;20043;-72
2021/12/16 11:46:42;;;;;;;15.63;8.93;;;;;;;;;;5066210;28;20119;-72
2021/12/16 11:49:14;;;;;;;13.07;8.45;;;;;;;;;;5067850;28;20017;-72
2021/12/16 11:51:50;;;;;;;14.63;8.70;;;;;;;;;;5067402;28;20028;-72
2021/12/16 11:54:19;;;;;;;14.60;9.10;;;;;;;;;;5066506;28;20029;-72
2021/12/16 11:56:52;;;;;;;13.10;8.02;;;;;;;;;;5064127;28;20146;-72
2021/12/16 11:59:23;;;;;;;13.98;8.90;;;;;;;;;;5064078;28;20024;-72
2021/12/16 12:01:49;;;;;;;;;;;;;;;;;;5066666;28;20040;-72
2021/12/16 12:04:15;;;;;;;16.45;9.88;;;;;;;;;;5066758;28;19951;-72
2021/12/16 12:06:44;;;;;;;16.52;10.15;;;;;;;;;;5069188;28;20043;-73
2021/12/16 12:09:11;;;;;;;16.15;9.90;;;;;;;;;;5066887;28;20029;-72
2021/12/16 12:11:40;;;;;;;14.90;9.23;;;;;;;;;;5063810;28;20029;-72
2021/12/16 12:14:08;;;;;;;16.00;9.77;;;;;;;;;;5067789;28;20068;-72
2021/12/16 12:16:44;;;;;;;15.90;9.57;;;;;;;;;;5069322;28;20042;-72
2021/12/16 12:19:16;;;;;;;14.52;9.45;;;;;;;;;;5071098;28;20028;-72
2021/12/16 12:21:46;;;;;;;18.17;9.40;;;;;;;;;;5070942;28;20028;-72
2021/12/16 12:24:12;;;;;;;14.80;9.20;;;;;;;;;;5061771;28;20048;-72
2021/12/16 12:26:43;;;;;;;14.93;9.35;;;;;;;;;;5059626;28;20448;-72
2021/12/16 12:29:16;;;;;;;13.93;8.70;;;;;;;;;;5067864;28;20032;-72
2021/12/16 12:31:46;;;;;;;14.23;8.63;;;;;;;;;;5063286;28;20104;-72
2021/12/16 12:34:13;;;;;;;14.20;9.30;;;;;;;;;;5069899;28;20072;-72
2021/12/16 12:36:40;;;;;;;13.15;7.90;;;;;;;;;;5066398;28;20626;-72
2021/12/16 12:39:08;;;;;;;14.68;8.15;;;;;;;;;;5069986;28;20029;-72
2021/12/16 12:41:35;;;;;;;14.32;8.00;;;;;;;;;;5068709;28;20032;-72
2021/12/16 12:44:04;;;;;;;13.05;8.35;;;;;;;;;;5067850;28;20063;-72
2021/12/16 12:46:31;;;;;;;12.70;8.07;;;;;;;;;;5067955;28;20024;-72
2021/12/16 12:49:01;;;;;;;12.93;8.27;;;;;;;;;;5067250;28;20036;-72
2021/12/16 12:51:31;;;;;;;14.10;8.02;;;;;;;;;;5070897;28;20125;-72
2021/12/16 12:53:58;;;;;;;14.35;8.00;;;;;;;;;;5067334;28;20509;-72
2021/12/16 12:56:29;;;;;;;13.63;7.82;;;;;;;;;;5066202;28;20020;-71
2021/12/16 12:58:58;;;;;;;12.35;7.93;;;;;;;;;;5066968;28;20715;-71
2021/12/16 13:01:36;;;;;;;14.50;8.13;;;;;;;;;;5068423;28;20438;-70
2021/12/16 13:04:04;;;;;;;11.52;7.65;;;;;;;;;;5069422;28;20030;-70
2021/12/16 13:06:31;;;;;;;12.75;7.55;;;;;;;;;;5070603;28;20391;-70
2021/12/16 13:08:59;;;;;;;12.95;8.35;;;;;;;;;;5069779;28;20067;-70
2021/12/16 13:11:28;;;;;;;12.43;7.18;;;;;;;;;;5065458;28;20017;-70
2021/12/16 13:14:14;;;;;;;9.40;6.60;;;;;;;;;;5064829;28;20028;-70
2021/12/16 13:17:19;;;;;;;9.73;6.50;;;;;;;;;;5068753;28;20031;-70
2021/12/16 13:28:00;;;;;;;9.38;6.20;;;;;;;;;;5023336;28;20068;-69
2021/12/16 13:30:30;;;;;;;12.02;6.20;;;;;;;;;;5024445;28;20034;-71
2021/12/16 13:33:22;;;;;;;10.98;6.65;;;;;;;;;;5021503;28;20029;-72
2021/12/16 13:35:53;;;;;;;9.63;6.15;;;;;;;;;;5023577;28;20049;-72
2021/12/16 13:38:19;;;;;;;;;;;;;;;;;;5022980;28;20028;-72
2021/12/16 13:40:45;;;;;;;10.48;6.55;;;;;;;;;;5019480;28;20355;-71
2021/12/16 13:43:19;;;;;;;9.98;6.10;;;;;;;;;;5020652;28;20034;-70
2021/12/16 13:45:56;;;;;;;12.13;6.57;;;;;;;;;;5020112;28;20021;-70
2021/12/16 14:03:04;;;;;;;11.98;6.95;;;;;;;;;;5049455;28;20035;-69
2021/12/16 14:05:40;;;;;;;9.00;6.18;;;;;;;;;;5066216;28;20036;-71
2021/12/16 14:08:08;;;;;;;10.27;6.90;;;;;;;;;;5063054;28;20083;-70
2021/12/16 14:10:45;;;;;;;11.65;6.82;;;;;;;;;;5067670;28;20083;-71
2021/12/16 14:33:40;;;;;;;9.85;6.45;;;;;;;;;;5062139;28;19942;-71
2021/12/16 14:36:26;;;;;;;12.15;6.60;;;;;;;;;;5066747;28;20040;-69
2021/12/16 14:38:38;;;;;;;10.18;6.30;;;;;;;;;;5049560;28;20101;-69
2021/12/16 14:41:42;;;;;;;12.05;7.07;;;;;;;;;;5067841;28;20039;-69
2021/12/16 14:49:41;;;;;;;14.35;8.93;;;;;;;;;;4981264;28;20038;-72
2021/12/16 14:52:13;;;;;;;15.25;9.75;;;;;;;;;;4983971;28;20129;-71
2021/12/16 14:54:54;;;;;;;15.13;8.85;;;;;;;;;;4980594;28;20081;-71
2021/12/16 14:57:32;;;;;;;12.65;8.18;;;;;;;;;;4986178;28;20046;-71
2021/12/16 14:59:58;;;;;;;12.57;7.65;;;;;;;;;;4983030;28;21602;-71
2021/12/16 15:02:29;;;;;;;12.27;7.80;;;;;;;;;;4982717;28;20534;-71
2021/12/16 15:04:56;;;;;;;11.65;6.93;;;;;;;;;;4984277;28;20097;-71
2021/12/16 15:07:25;;;;;;;11.20;6.47;;;;;;;;;;4973655;28;20044;-71
2021/12/16 15:09:53;;;;;;;11.90;6.60;;;;;;;;;;4977560;28;20593;-71
2021/12/16 15:12:30;;;;;;;10.07;6.35;;;;;;;;;;4980004;28;20033;-71
2021/12/16 15:45:17;;;;;;;11.10;6.25;;;;;;;;;;5065478;28;20123;-71
2021/12/16 15:47:48;;;;;;;10.60;6.93;;;;;;;;;;5070147;28;20024;-70
2021/12/16 15:50:18;;;;;;;13.45;6.93;;;;;;;;;;5070798;28;20104;-71
2021/12/16 15:52:45;;;;;;;11.57;7.47;;;;;;;;;;5070631;28;20388;-71
2021/12/16 15:55:15;;;;;;;12.13;6.78;;;;;;;;;;5068699;28;20475;-70
2021/12/16 15:57:42;;;;;;;13.55;7.30;;;;;;;;;;5072100;28;20017;-71
2021/12/16 16:00:13;;;;;;;10.88;7.07;;;;;;;;;;5071077;28;20060;-71
2021/12/16 16:02:39;;;;;;;14.52;7.45;;;;;;;;;;5071243;28;20028;-70
2021/12/16 16:05:06;;;;;;;11.10;6.60;;;;;;;;;;5070049;28;20048;-70
2021/12/16 16:07:33;;;;;;;11.10;6.82;;;;;;;;;;5068897;28;20021;-71
2021/12/16 16:10:00;;;;;;;11.00;7.25;;;;;;;;;;5068526;28;20119;-70
2021/12/16 16:12:31;;;;;;;10.63;6.68;;;;;;;;;;5068214;28;20063;-70
2021/12/16 16:15:05;;;;;;;11.23;6.90;;;;;;;;;;5067952;28;20074;-71
2021/12/16 16:17:39;;;;;;;11.18;6.68;;;;;;;;;;5067822;28;20091;-71
2021/12/16 16:20:06;;;;;;;11.13;7.10;;;;;;;;;;5069240;28;20031;-70
2021/12/16 16:22:32;;;;;;;11.13;7.25;;;;;;;;;;5067892;28;20087;-71
2021/12/16 16:24:58;;;;;;;12.23;6.75;;;;;;;;;;5070571;28;20044;-71
2021/12/16 16:27:26;;;;;;;11.88;7.70;;;;;;;;;;5069745;28;20032;-71
2021/12/16 16:29:54;;;;;;;13.60;7.07;;;;;;;;;;5071694;28;20032;-71
2021/12/16 16:32:23;;;;;;;11.35;7.40;;;;;;;;;;5068295;28;20483;-70
2021/12/16 16:34:51;;;;;;;13.40;7.63;;;;;;;;;;5068995;28;20041;-71
2021/12/16 16:37:28;;;;;;;12.13;7.75;;;;;;;;;;5070283;28;20535;-70
2021/12/16 16:39:56;;;;;;;11.57;7.90;;;;;;;;;;5073577;28;20024;-70
2021/12/16 16:42:28;;;;;;;12.25;7.90;;;;;;;;;;5069152;28;20024;-70
2021/12/16 16:44:56;;;;;;;13.63;7.80;;;;;;;;;;5070389;28;20066;-71
2021/12/16 16:47:39;;;;;;;12.68;7.38;;;;;;;;;;5069714;28;20059;-70
2021/12/16 16:50:07;;;;;;;14.15;7.70;;;;;;;;;;5067030;28;20399;-71
2021/12/16 16:52:39;;;;;;;13.57;7.78;;;;;;;;;;5071036;28;20025;-71
2021/12/16 16:55:09;;;;;;;12.43;8.02;;;;;;;;;;5071775;28;20039;-70
2021/12/16 16:57:37;;;;;;;12.95;7.95;;;;;;;;;;5069325;28;20017;-71
2021/12/16 17:00:09;;;;;;;17.67;11.13;;;;;;;;;;5062259;28;20107;-71
2021/12/16 17:02:39;;;;;;;16.73;10.50;;;;;;;;;;5068050;28;20479;-70
2021/12/16 17:05:05;;;;;;;14.73;9.85;;;;;;;;;;5069477;28;20127;-70
2021/12/16 17:07:40;;;;;;;14.40;9.45;;;;;;;;;;5065991;28;20020;-71
2021/12/16 17:10:18;;;;;;;16.63;10.02;;;;;;;;;;5069540;28;20031;-70
2021/12/16 17:12:45;;;;;;;16.35;10.27;;;;;;;;;;5070713;28;20496;-71
2021/12/16 17:15:29;;;;;;;18.05;9.68;;;;;;;;;;5069341;28;20377;-69
2021/12/16 17:17:56;;;;;;;12.85;9.00;;;;;;;;;;5068180;28;20503;-70
2021/12/16 17:20:22;;;;;;;14.32;9.52;;;;;;;;;;5058962;28;20031;-67
2021/12/16 17:22:52;;;;;;;15.10;9.48;;;;;;;;;;5066426;28;20082;-69
2021/12/16 17:25:19;;;;;;;13.05;9.10;;;;;;;;;;5064328;28;20119;-69
2021/12/16 17:27:49;;;;;;;15.70;9.57;;;;;;;;;;5070467;28;20399;-69
2021/12/16 17:30:20;;;;;;;15.52;10.20;;;;;;;;;;5066195;28;20021;-67
2021/12/16 17:32:47;;;;;;;38.75;22.77;;;;;;;;;;5066349;28;20037;-68
2021/12/16 17:35:19;;;;;;;29.75;18.95;;;;;;;;;;5064721;28;20029;-68
2021/12/16 17:37:51;;;;;;;30.25;18.08;;;;;;;;;;5060144;28;20039;-69
2021/12/16 17:40:19;;;;;;;30.25;18.42;;;;;;;;;;5061721;28;20024;-69
2021/12/16 17:42:48;;;;;;;26.10;16.08;;;;;;;;;;5068473;28;20025;-68
2021/12/16 17:45:34;;;;;;;22.70;15.10;;;;;;;;;;5064031;28;20020;-67
2021/12/16 17:48:01;;;;;;;22.10;12.75;;;;;;;;;;5061631;28;20104;-67
2021/12/16 17:50:30;;;;;;;22.05;12.65;;;;;;;;;;5058890;28;20404;-70
2021/12/16 17:52:57;;;;;;;18.38;10.93;;;;;;;;;;5068728;28;20525;-71
2021/12/16 17:55:26;;;;;;;15.43;10.20;;;;;;;;;;5064998;28;20483;-72
2021/12/16 17:57:56;;;;;;;18.65;10.60;;;;;;;;;;5065231;28;20107;-72
2021/12/16 18:00:22;;;;;;;19.40;10.20;;;;;;;;;;5067230;28;20091;-70
2021/12/16 18:02:49;;;;;;;17.40;11.13;;;;;;;;;;5067991;28;20025;-71
2021/12/16 18:05:16;;;;;;;13.20;8.98;;;;;;;;;;5067918;28;20094;-73
2021/12/16 18:07:42;;;;;;;14.98;9.57;;;;;;;;;;5063070;28;20055;-72
2021/12/16 18:10:10;;;;;;;14.85;10.57;;;;;;;;;;5064834;28;20127;-72
2021/12/16 18:12:36;;;;;;;19.02;11.23;;;;;;;;;;5067204;28;20104;-72
2021/12/16 18:15:08;;;;;;;17.98;12.52;;;;;;;;;;5064075;28;20043;-72
2021/12/16 18:17:36;;;;;;;19.77;12.82;;;;;;;;;;5065334;28;20020;-73
2021/12/16 18:20:11;;;;;;;20.13;11.90;;;;;;;;;;5066416;28;20036;-73
2021/12/16 18:22:39;;;;;;;23.52;13.25;;;;;;;;;;5059875;28;20021;-70
2021/12/16 18:25:08;;;;;;;24.45;14.05;;;;;;;;;;5066671;28;20526;-72
2021/12/16 18:27:36;;;;;;;19.80;13.45;;;;;;;;;;5063019;28;20020;-72
2021/12/16 18:30:08;;;;;;;23.92;15.57;;;;;;;;;;5063792;28;20111;-72
2021/12/16 18:32:36;;;;;;;26.83;16.23;;;;;;;;;;5064843;28;20032;-72
2021/12/16 18:35:04;;;;;;;31.98;17.88;;;;;;;;;;5060205;28;20033;-69
2021/12/16 18:37:32;;;;;;;39.13;23.77;;;;;;;;;;5063698;28;20021;-71
2021/12/16 18:39:58;;;;;;;46.60;26.92;;;;;;;;;;5069702;28;20114;-71
2021/12/16 18:42:28;;;;;;;38.00;21.88;;;;;;;;;;5066231;28;20024;-70
2021/12/16 18:44:58;;;;;;;32.65;20.35;;;;;;;;;;5066781;28;20032;-71
2021/12/16 18:47:52;;;;;;;28.27;18.98;;;;;;;;;;5066181;28;20074;-71
2021/12/16 18:55:54;;;;;;;33.60;20.73;;;;;;;;;;5065344;28;20412;-71
2021/12/16 18:58:20;;;;;;;33.40;21.33;;;;;;;;;;5067632;28;20028;-70
2021/12/16 19:00:50;;;;;;;32.13;19.27;;;;;;;;;;5060457;28;20028;-69
2021/12/16 19:03:16;;;;;;;43.03;25.58;;;;;;;;;;5061001;28;20039;-68
2021/12/16 19:05:42;;;;;;;32.75;20.73;;;;;;;;;;5063998;28;20090;-71
2021/12/16 19:08:10;;;;;;;32.35;19.02;;;;;;;;;;5065211;28;20032;-70
2021/12/16 19:10:38;;;;;;;25.02;16.45;;;;;;;;;;5057057;28;20029;-70
2021/12/16 19:13:17;;;;;;;30.85;19.02;;;;;;;;;;5059641;28;20020;-70
2021/12/16 19:15:46;;;;;;;28.83;18.70;;;;;;;;;;5057163;28;20040;-70
2021/12/16 19:18:12;;;;;;;29.70;19.30;;;;;;;;;;5054719;28;20029;-70
2021/12/16 19:20:39;;;;;;;29.90;18.85;;;;;;;;;;5053598;28;20029;-73
2021/12/16 19:23:10;;;;;;;29.42;16.98;;;;;;;;;;5052956;28;20025;-73
2021/12/16 19:25:36;;;;;;;27.05;18.55;;;;;;;;;;5053219;28;20044;-75
2021/12/16 19:28:02;;;;;;;27.25;16.38;;;;;;;;;;5053835;28;20127;-73
2021/12/16 19:30:32;;;;;;;25.02;15.95;;;;;;;;;;5055918;28;20037;-73
2021/12/16 19:32:58;;;;;;;25.73;16.10;;;;;;;;;;5055334;28;20414;-74
2021/12/16 19:35:25;;;;;;;26.40;15.63;;;;;;;;;;5052435;28;20040;-73
2021/12/16 19:37:51;;;;;;;74.20;44.75;;;;;;;;;;5055827;28;20024;-73
2021/12/16 19:40:21;;;;;;;101.85;67.75;;;;;;;;;;5053710;28;20108;-72
2021/12/16 19:42:48;;;;;;;77.50;50.72;;;;;;;;;;5055914;28;20492;-72
2021/12/16 19:45:16;;;;;;;41.38;26.55;;;;;;;;;;5057276;28;20104;-72
2021/12/16 19:47:42;;;;;;;33.97;22.15;;;;;;;;;;5053590;28;20029;-71
2021/12/16 19:50:11;;;;;;;36.17;23.02;;;;;;;;;;5056159;28;20063;-75
2021/12/16 19:52:37;;;;;;;36.05;23.15;;;;;;;;;;5060776;28;20036;-74
2021/12/16 19:55:05;;;;;;;41.40;25.13;;;;;;;;;;5064757;28;20043;-72
2021/12/16 19:57:36;;;;;;;33.47;22.50;;;;;;;;;;5063412;28;20097;-72
2021/12/16 20:00:05;;;;;;;39.75;22.00;;;;;;;;;;5053899;28;20476;-72
2021/12/16 20:02:31;;;;;;;30.00;19.48;;;;;;;;;;5059590;28;20017;-70
2021/12/16 20:04:57;;;;;;;31.40;18.92;;;;;;;;;;5066889;28;20040;-71
2021/12/16 20:07:24;;;;;;;31.40;19.55;;;;;;;;;;5063264;28;20032;-70
2021/12/16 20:09:52;;;;;;;29.15;17.25;;;;;;;;;;5065499;28;20480;-71
2021/12/16 20:12:21;;;;;;;27.95;18.08;;;;;;;;;;5059246;28;20028;-70
2021/12/16 20:14:47;;;;;;;29.08;19.83;;;;;;;;;;5064833;28;20072;-71
2021/12/16 20:17:16;;;;;;;32.20;19.70;;;;;;;;;;5065684;28;20017;-71
2021/12/16 20:19:44;;;;;;;33.40;20.63;;;;;;;;;;5063992;28;20037;-71
2021/12/16 20:22:13;;;;;;;36.30;24.67;;;;;;;;;;5067205;28;20016;-73
2021/12/16 20:24:44;;;;;;;50.08;31.15;;;;;;;;;;5057751;28;20040;-72
2021/12/16 20:27:16;;;;;;;80.00;47.05;;;;;;;;;;5064742;28;20028;-73
2021/12/16 20:29:47;;;;;;;90.13;51.13;;;;;;;;;;5062044;28;20032;-72
2021/12/16 20:32:16;;;;;;;78.85;46.58;;;;;;;;;;5064693;28;20107;-73
2021/12/16 20:34:45;;;;;;;94.80;52.75;;;;;;;;;;5059816;28;20070;-73
2021/12/16 20:37:13;;;;;;;76.57;45.00;;;;;;;;;;5061669;28;20506;-73
2021/12/16 20:39:45;;;;;;;71.28;42.63;;;;;;;;;;5065047;28;20512;-72
2021/12/16 20:42:24;;;;;;;62.33;39.10;;;;;;;;;;5063366;28;20021;-74
2021/12/16 20:44:54;;;;;;;50.65;28.25;;;;;;;;;;5070095;28;20036;-73
2021/12/16 20:47:21;;;;;;;58.78;34.88;;;;;;;;;;5067895;28;20024;-73
2021/12/16 20:49:48;;;;;;;60.22;33.28;;;;;;;;;;5065490;28;20029;-74
2021/12/16 20:52:17;;;;;;;46.65;27.85;;;;;;;;;;5062253;28;20021;-71
2021/12/16 20:54:45;;;;;;;45.08;27.52;;;;;;;;;;5061209;28;20045;-71
2021/12/16 20:57:12;;;;;;;46.55;28.55;;;;;;;;;;5065062;28;20758;-71
2021/12/16 20:59:38;;;;;;;44.45;27.05;;;;;;;;;;5057848;28;20025;-72
2021/12/16 21:02:09;;;;;;;43.45;27.27;;;;;;;;;;5057353;28;20029;-72
2021/12/16 21:04:36;;;;;;;;;;;;;;;;;;5054215;28;20032;-71
2021/12/16 21:07:03;;;;;;;40.08;23.98;;;;;;;;;;5058492;28;19908;-69
2021/12/16 21:09:31;;;;;;;42.63;25.08;;;;;;;;;;5064736;28;20407;-71
2021/12/16 21:11:58;;;;;;;39.15;24.83;;;;;;;;;;5065447;28;20025;-71
2021/12/16 21:14:24;;;;;;;41.95;25.80;;;;;;;;;;5074821;28;20047;-72
2021/12/16 21:16:51;;;;;;;41.80;26.40;;;;;;;;;;5069022;28;20020;-73
2021/12/16 21:19:18;;;;;;;44.08;27.35;;;;;;;;;;5064250;28;20033;-74
2021/12/16 21:21:44;;;;;;;40.47;25.40;;;;;;;;;;5067891;28;20028;-72
2021/12/16 21:24:14;;;;;;;42.53;25.67;;;;;;;;;;5066550;28;20049;-71
2021/12/16 21:26:42;;;;;;;41.03;25.67;;;;;;;;;;5070511;28;20418;-71
2021/12/16 21:29:10;;;;;;;38.75;26.05;;;;;;;;;;5069054;28;20090;-71
2021/12/16 21:31:37;;;;;;;36.58;24.17;;;;;;;;;;5067723;28;20078;-72
2021/12/16 21:34:11;;;;;;;35.00;23.83;;;;;;;;;;5066372;28;20020;-71
2021/12/16 21:36:38;;;;;;;37.70;24.52;;;;;;;;;;5066150;28;20060;-70
2021/12/16 21:39:10;;;;;;;36.33;23.42;;;;;;;;;;5068463;28;20036;-70
2021/12/16 21:41:36;;;;;;;36.88;24.38;;;;;;;;;;5063930;28;20037;-70
2021/12/16 21:44:03;;;;;;;37.50;24.17;;;;;;;;;;5067730;28;20016;-71
2021/12/16 21:46:29;;;;;;;46.38;25.52;;;;;;;;;;5066354;28;20032;-71
2021/12/16 21:48:55;;;;;;;52.95;28.05;;;;;;;;;;5066903;28;20039;-72
2021/12/16 21:51:23;;;;;;;69.78;34.50;;;;;;;;;;5062626;28;20065;-72
2021/12/16 21:53:49;;;;;;;75.82;33.92;;;;;;;;;;5059366;28;20029;-71
2021/12/16 21:56:16;;;;;;;54.17;29.15;;;;;;;;;;5057334;28;20609;-72
2021/12/16 21:58:43;;;;;;;45.53;25.48;;;;;;;;;;5056404;28;20033;-72
2021/12/16 22:01:11;;;;;;;35.58;21.02;;;;;;;;;;5059754;28;20544;-73
2021/12/16 22:03:41;;;;;;;33.58;18.55;;;;;;;;;;5065235;28;20029;-71
2021/12/16 22:06:08;;;;;;;31.50;19.35;;;;;;;;;;5064084;28;26391;-72
2021/12/16 22:08:35;;;;;;;29.70;17.88;;;;;;;;;;5061674;28;20048;-73
2021/12/16 22:11:02;;;;;;;27.17;16.75;;;;;;;;;;5065578;28;20028;-72
2021/12/16 22:13:28;;;;;;;26.02;16.80;;;;;;;;;;5066678;28;20020;-72
2021/12/16 22:15:56;;;;;;;24.25;16.85;;;;;;;;;;5065910;28;20181;-72
2021/12/16 22:18:23;;;;;;;22.58;15.93;;;;;;;;;;5063975;28;20025;-73
2021/12/16 22:20:50;;;;;;;25.25;16.65;;;;;;;;;;5068080;28;20059;-72
2021/12/16 22:23:19;;;;;;;24.55;15.43;;;;;;;;;;5067910;28;20028;-72
2021/12/16 22:25:45;;;;;;;26.42;14.88;;;;;;;;;;5064084;28;20120;-72
2021/12/16 22:28:11;;;;;;;24.08;16.25;;;;;;;;;;5066329;28;20030;-72
2021/12/16 22:30:39;;;;;;;30.00;18.42;;;;;;;;;;5063229;28;20531;-72
2021/12/16 22:33:06;;;;;;;29.98;19.27;;;;;;;;;;5063710;28;20545;-72
2021/12/16 22:35:33;;;;;;;28.65;18.70;;;;;;;;;;5064129;28;20032;-72
2021/12/16 22:38:02;;;;;;;28.38;17.38;;;;;;;;;;5060518;28;20677;-72
2021/12/16 22:40:30;;;;;;;27.13;16.83;;;;;;;;;;5059299;28;20036;-71
2021/12/16 22:42:57;;;;;;;30.60;17.98;;;;;;;;;;5064817;28;20025;-72
2021/12/16 22:45:23;;;;;;;27.73;17.92;;;;;;;;;;5065449;28;20033;-71
2021/12/16 22:47:50;;;;;;;27.80;18.00;;;;;;;;;;5063312;28;20075;-71
2021/12/16 22:50:17;;;;;;;39.58;22.17;;;;;;;;;;5066023;28;20028;-71
2021/12/16 22:52:43;;;;;;;48.25;29.55;;;;;;;;;;5065441;28;20071;-70
2021/12/16 22:55:09;;;;;;;51.05;29.17;;;;;;;;;;5068254;28;20071;-70
2021/12/16 22:57:37;;;;;;;39.55;24.35;;;;;;;;;;5068983;28;20024;-70
2021/12/16 23:00:06;;;;;;;34.97;20.95;;;;;;;;;;5063510;28;20067;-71
2021/12/16 23:02:32;;;;;;;32.03;19.80;;;;;;;;;;5066252;28;20526;-71
2021/12/16 23:05:01;;;;;;;30.77;19.55;;;;;;;;;;5066563;28;20063;-71
2021/12/16 23:07:27;;;;;;;31.40;19.85;;;;;;;;;;5065899;28;20611;-72
2021/12/16 23:09:53;;;;;;;29.10;17.67;;;;;;;;;;5067605;28;20028;-72
2021/12/16 23:12:20;;;;;;;28.15;17.83;;;;;;;;;;5061022;28;20021;-72
